createdAt,value
2023-03-08T00:02:31.031Z,3.47
2023-03-08T00:05:34.124Z,3.45
2023-03-08T00:08:35.773Z,3.42
2023-03-08T00:11:37.390Z,3.38
2023-03-08T00:14:40.126Z,3.33
2023-03-08T00:17:41.736Z,3.31
2023-03-08T00:20:43.365Z,3.31
2023-03-08T00:23:45.709Z,3.30
2023-03-08T00:26:48.712Z,3.25
2023-03-08T00:29:50.423Z,3.27
2023-03-08T00:32:53.147Z,3.26
2023-03-08T00:36:00.018Z,3.19
2023-03-08T00:39:01.694Z,3.22
2023-03-08T00:42:03.316Z,3.21
2023-03-08T00:45:06.405Z,3.19
2023-03-08T00:48:08.223Z,3.19
2023-03-08T00:51:13.713Z,3.18
2023-03-08T00:54:17.851Z,3.11
2023-03-08T00:57:20.776Z,3.10
2023-03-08T01:00:23.017Z,3.03
2023-03-08T01:03:25.788Z,3.01
2023-03-08T01:06:27.438Z,2.94
2023-03-08T01:09:29.033Z,2.87
2023-03-08T01:12:32.804Z,2.86
2023-03-08T01:15:37.855Z,2.85
2023-03-08T01:18:39.501Z,2.83
2023-03-08T01:21:41.160Z,2.77
2023-03-08T01:24:47.053Z,2.79
2023-03-08T01:27:50.268Z,2.79
2023-03-08T01:30:51.884Z,2.79
2023-03-08T01:33:53.473Z,2.78
2023-03-08T01:36:55.742Z,2.76
2023-03-08T01:39:57.983Z,2.73
2023-03-08T01:42:59.609Z,2.73
2023-03-08T01:46:23.158Z,2.73
2023-03-08T01:49:33.281Z,2.70
2023-03-08T01:52:41.501Z,2.74
2023-03-08T01:55:43.139Z,2.73
2023-03-08T01:58:48.413Z,2.72
2023-03-08T02:01:50.155Z,2.70
2023-03-08T02:04:55.757Z,2.66
2023-03-08T02:07:57.648Z,2.63
2023-03-08T02:11:03.130Z,2.59
2023-03-08T02:14:05.720Z,2.57
2023-03-08T02:17:08.517Z,2.53
2023-03-08T02:20:17.630Z,2.51
2023-03-08T02:23:23.229Z,2.47
2023-03-08T02:26:25.288Z,2.43
2023-03-08T02:29:26.942Z,2.41
2023-03-08T02:32:29.839Z,2.38
2023-03-08T02:35:32.394Z,2.34
2023-03-08T02:38:34.530Z,2.33
2023-03-08T02:41:36.147Z,2.28
2023-03-08T02:44:37.755Z,2.25
2023-03-08T02:47:39.406Z,2.24
2023-03-08T02:50:41.692Z,2.23
2023-03-08T02:53:43.342Z,2.20
2023-03-08T02:56:45.819Z,2.16
2023-03-08T02:59:50.370Z,2.12
2023-03-08T03:02:52.766Z,2.10
2023-03-08T03:05:54.987Z,2.10
2023-03-08T03:09:06.833Z,2.04
2023-03-08T03:12:08.970Z,2.05
2023-03-08T03:15:14.198Z,2.03
2023-03-08T03:18:17.638Z,2.01
2023-03-08T03:21:19.867Z,1.96
2023-03-08T03:24:21.567Z,1.98
2023-03-08T03:27:28.831Z,1.99
2023-03-08T03:30:31.336Z,1.99
2023-03-08T03:33:34.127Z,1.95
2023-03-08T03:36:36.460Z,1.90
2023-03-08T03:42:43.782Z,1.90
2023-03-08T03:45:58.708Z,1.87
2023-03-08T03:49:01.367Z,1.86
2023-03-08T03:52:09.332Z,1.82
2023-03-08T03:55:19.298Z,1.80
2023-03-08T03:58:22.446Z,1.79
2023-03-08T04:01:28.354Z,1.76
2023-03-08T04:04:36.558Z,1.75
2023-03-08T04:07:39.552Z,1.72
2023-03-08T04:10:42.565Z,1.66
2023-03-08T04:13:44.760Z,1.63
2023-03-08T04:16:47.103Z,1.59
2023-03-08T04:19:58.379Z,1.57
2023-03-08T04:23:02.592Z,1.53
2023-03-08T04:26:13.614Z,1.52
2023-03-08T04:29:15.508Z,1.52
2023-03-08T04:32:19.171Z,1.50
2023-03-08T04:35:28.812Z,1.49
2023-03-08T04:38:31.171Z,1.46
2023-03-08T04:41:35.903Z,1.46
2023-03-08T04:44:56.027Z,1.46
2023-03-08T04:47:58.941Z,1.46
2023-03-08T04:51:03.047Z,1.44
2023-03-08T04:54:04.889Z,1.42
2023-03-08T04:57:09.076Z,1.38
2023-03-08T05:00:12.622Z,1.35
2023-03-08T05:03:18.404Z,1.32
2023-03-08T05:06:22.497Z,1.29
2023-03-08T05:09:25.949Z,1.25
2023-03-08T05:12:28.468Z,1.22
2023-03-08T05:15:34.843Z,1.21
2023-03-08T05:18:38.153Z,1.18
2023-03-08T05:21:43.886Z,1.17
2023-03-08T05:24:49.135Z,1.17
2023-03-08T05:27:53.987Z,1.17
2023-03-08T05:31:04.342Z,1.17
2023-03-08T05:34:11.277Z,1.20
2023-03-08T05:37:18.977Z,1.22
2023-03-08T05:40:22.644Z,1.23
2023-03-08T05:43:27.616Z,1.24
2023-03-08T05:46:31.568Z,1.27
2023-03-08T05:49:35.895Z,1.30
2023-03-08T05:52:42.475Z,1.31
2023-03-08T05:55:47.773Z,1.35
2023-03-08T05:58:53.647Z,1.38
2023-03-08T06:01:55.969Z,1.39
2023-03-08T06:05:12.308Z,1.44
2023-03-08T06:08:16.012Z,1.48
2023-03-08T06:11:19.243Z,1.50
2023-03-08T06:14:26.603Z,1.52
2023-03-08T06:17:34.094Z,1.54
2023-03-08T06:20:35.952Z,1.57
2023-03-08T06:23:39.704Z,1.58
2023-03-08T06:26:44.006Z,1.64
2023-03-08T06:29:49.283Z,1.68
2023-03-08T06:32:52.025Z,1.71
2023-03-08T06:36:03.534Z,1.77
2023-03-08T06:39:07.089Z,1.81
2023-03-08T06:42:09.253Z,1.83
2023-03-08T06:45:11.500Z,1.86
2023-03-08T06:48:14.891Z,1.88
2023-03-08T06:51:17.750Z,1.92
2023-03-08T06:54:22.091Z,1.99
2023-03-08T06:57:23.865Z,2.05
2023-03-08T07:00:26.117Z,2.06
2023-03-08T07:03:28.096Z,2.11
2023-03-08T07:06:29.740Z,2.16
2023-03-08T07:09:31.389Z,2.21
2023-03-08T07:12:32.977Z,2.25
2023-03-08T07:15:34.789Z,2.34
2023-03-08T07:18:36.766Z,2.38
2023-03-08T07:21:39.692Z,2.43
2023-03-08T07:24:41.345Z,2.57
2023-03-08T07:27:45.197Z,2.64
2023-03-08T07:30:48.960Z,2.80
2023-03-08T07:33:50.958Z,2.90
2023-03-08T07:36:53.396Z,2.96
2023-03-08T07:39:56.477Z,3.01
2023-03-08T07:42:58.963Z,3.09
2023-03-08T07:46:23.620Z,3.19
2023-03-08T07:49:25.208Z,3.25
2023-03-08T07:52:28.943Z,3.29
2023-03-08T07:55:30.936Z,3.33
2023-03-08T07:58:32.613Z,3.41
2023-03-08T08:01:34.238Z,3.44
2023-03-08T08:04:37.741Z,3.54
2023-03-08T08:07:39.855Z,3.66
2023-03-08T08:10:41.999Z,3.73
2023-03-08T08:13:43.605Z,3.81
2023-03-08T08:16:45.370Z,3.87
2023-03-08T08:19:47.444Z,3.89
2023-03-08T08:22:52.160Z,3.98
2023-03-08T08:25:54.143Z,4.04
2023-03-08T08:28:56.095Z,4.15
2023-03-08T08:31:57.918Z,4.21
2023-03-08T08:35:00.433Z,4.27
2023-03-08T08:38:02.108Z,4.35
2023-03-08T08:41:06.493Z,4.42
2023-03-08T08:44:08.202Z,4.48
2023-03-08T08:47:10.141Z,4.56
2023-03-08T08:50:13.973Z,4.62
2023-03-08T08:53:15.875Z,4.66
2023-03-08T08:56:26.575Z,4.73
2023-03-08T08:59:30.002Z,4.78
2023-03-08T09:02:31.869Z,4.83
2023-03-08T09:05:37.643Z,4.90
2023-03-08T09:08:39.478Z,4.94
2023-03-08T09:11:53.779Z,4.96
2023-03-08T09:14:56.567Z,4.99
2023-03-08T09:17:58.424Z,5.06
2023-03-08T09:21:02.447Z,5.10
2023-03-08T09:24:06.027Z,5.09
2023-03-08T09:27:07.865Z,5.15
2023-03-08T09:30:12.733Z,5.17
2023-03-08T09:33:14.370Z,5.25
2023-03-08T09:36:16.593Z,5.27
2023-03-08T09:39:18.209Z,5.25
2023-03-08T09:42:27.616Z,5.23
2023-03-08T09:45:29.608Z,5.22
2023-03-08T09:48:32.318Z,5.26
2023-03-08T09:51:38.597Z,5.29
2023-03-08T09:54:42.332Z,5.25
2023-03-08T09:57:52.728Z,5.19
2023-03-08T10:00:59.805Z,5.17
2023-03-08T10:04:15.851Z,5.16
2023-03-08T10:07:53.610Z,5.22
2023-03-08T10:11:01.062Z,5.13
2023-03-08T10:14:14.742Z,5.09
2023-03-08T10:17:26.229Z,5.08
2023-03-08T10:20:37.444Z,5.00
2023-03-08T10:23:41.554Z,4.95
2023-03-08T10:26:44.866Z,4.90
2023-03-08T10:29:52.636Z,4.86
2023-03-08T10:33:00.822Z,4.82
2023-03-08T10:36:12.655Z,4.79
2023-03-08T10:39:14.306Z,4.80
2023-03-08T10:42:17.624Z,4.81
2023-03-08T10:45:22.371Z,4.83
2023-03-08T10:48:24.363Z,4.85
2023-03-08T10:51:28.821Z,4.88
2023-03-08T10:54:30.958Z,4.91
2023-03-08T10:57:33.786Z,4.94
2023-03-08T11:00:44.376Z,4.98
2023-03-08T11:03:47.033Z,5.03
2023-03-08T11:06:48.693Z,5.06
2023-03-08T11:09:50.891Z,5.13
2023-03-08T11:13:06.372Z,5.19
2023-03-08T11:16:21.477Z,5.26
2023-03-08T11:19:43.052Z,5.33
2023-03-08T11:23:12.969Z,5.39
2023-03-08T11:26:26.002Z,5.45
2023-03-08T11:29:34.925Z,5.54
2023-03-08T11:32:52.354Z,5.63
2023-03-08T11:36:15.308Z,5.72
2023-03-08T11:39:25.926Z,5.81
2023-03-08T11:42:42.916Z,5.93
2023-03-08T11:46:13.657Z,6.03
2023-03-08T11:49:39.292Z,6.18
2023-03-08T11:52:50.155Z,6.34
2023-03-08T11:55:58.383Z,6.48
2023-03-08T11:59:13.935Z,6.68
2023-03-08T12:02:18.883Z,6.87
2023-03-08T12:05:38.906Z,7.03
2023-03-08T12:08:53.586Z,7.18
2023-03-08T12:11:59.239Z,7.31
2023-03-08T12:15:39.622Z,7.48
2023-03-08T12:19:15.512Z,7.65
2023-03-08T12:22:33.678Z,7.83
2023-03-08T12:25:40.681Z,8.01
2023-03-08T12:28:54.589Z,8.17
2023-03-08T12:31:57.649Z,8.34
2023-03-08T12:35:24.274Z,8.48
2023-03-08T12:38:36.581Z,8.67
2023-03-08T12:41:39.153Z,8.79
2023-03-08T12:44:42.150Z,8.93
2023-03-08T12:47:55.808Z,9.05
2023-03-08T12:51:03.623Z,9.13
2023-03-08T12:54:05.479Z,9.21
2023-03-08T12:57:20.588Z,9.29
2023-03-08T13:00:37.015Z,9.33
2023-03-08T13:03:41.796Z,9.41
2023-03-08T13:06:52.495Z,9.50
2023-03-08T13:09:59.621Z,9.53
2023-03-08T13:13:17.982Z,9.59
2023-03-08T13:16:38.773Z,9.63
2023-03-08T13:19:43.377Z,9.70
2023-03-08T13:22:56.293Z,9.78
2023-03-08T13:26:13.343Z,9.85
2023-03-08T13:29:18.618Z,9.94
2023-03-08T13:32:23.995Z,10.03
2023-03-08T13:35:26.076Z,10.09
2023-03-08T13:38:32.313Z,10.19
2023-03-08T13:41:45.884Z,10.28
2023-03-08T13:44:48.907Z,10.33
2023-03-08T13:47:51.672Z,10.37
2023-03-08T13:50:53.424Z,10.33
2023-03-08T13:53:55.792Z,10.39
2023-03-08T13:57:00.225Z,10.40
2023-03-08T14:00:17.102Z,10.39
2023-03-08T14:03:20.641Z,10.42
2023-03-08T14:06:24.010Z,10.47
2023-03-08T14:09:27.445Z,10.60
2023-03-08T14:12:32.921Z,10.66
2023-03-08T14:15:39.807Z,10.72
2023-03-08T14:18:43.800Z,10.78
2023-03-08T14:21:51.115Z,10.85
2023-03-08T14:25:05.094Z,10.91
2023-03-08T14:28:34.245Z,11.04
2023-03-08T14:31:39.048Z,11.07
2023-03-08T14:34:44.843Z,11.10
2023-03-08T14:37:49.150Z,11.08
2023-03-08T14:40:52.654Z,11.13
2023-03-08T14:43:55.626Z,11.17
2023-03-08T14:47:09.269Z,11.18
2023-03-08T14:50:11.472Z,11.27
2023-03-08T14:53:25.317Z,11.38
2023-03-08T14:56:29.357Z,11.41
2023-03-08T14:59:32.077Z,11.43
2023-03-08T15:02:33.960Z,11.46
2023-03-08T15:05:36.518Z,11.59
2023-03-08T15:08:38.177Z,11.73
2023-03-08T15:11:39.986Z,11.93
2023-03-08T15:14:42.083Z,12.06
2023-03-08T15:17:45.855Z,12.19
2023-03-08T15:20:51.725Z,12.18
2023-03-08T15:23:54.052Z,12.10
2023-03-08T15:26:57.249Z,12.04
2023-03-08T15:29:59.428Z,12.08
2023-03-08T15:33:02.625Z,12.04
2023-03-08T15:36:05.362Z,12.00
2023-03-08T15:39:12.039Z,11.87
2023-03-08T15:42:14.043Z,11.80
2023-03-08T15:45:16.315Z,11.80
2023-03-08T15:48:20.471Z,11.87
2023-03-08T15:51:28.432Z,11.91
2023-03-08T15:54:31.865Z,11.99
2023-03-08T15:57:34.832Z,12.06
2023-03-08T16:00:37.102Z,12.08
2023-03-08T16:03:39.635Z,12.03
2023-03-08T16:06:43.710Z,11.93
2023-03-08T16:09:46.592Z,11.72
2023-03-08T16:12:48.497Z,11.59
2023-03-08T16:15:50.796Z,11.48
2023-03-08T16:18:52.455Z,11.37
2023-03-08T16:21:54.169Z,11.28
2023-03-08T16:24:55.816Z,11.20
2023-03-08T16:27:57.535Z,11.18
2023-03-08T16:30:59.232Z,11.18
2023-03-08T16:34:05.642Z,11.15
2023-03-08T16:51:21.243Z,10.85
2023-03-08T16:54:36.892Z,10.82
2023-03-08T16:57:39.793Z,10.79
2023-03-08T17:00:41.929Z,10.73
2023-03-08T17:04:02.249Z,10.81
2023-03-08T17:10:53.778Z,10.80
2023-03-08T17:17:14.374Z,10.76
2023-03-08T17:20:16.300Z,10.90
2023-03-08T17:23:19.766Z,10.77
2023-03-08T17:26:23.217Z,10.78
2023-03-08T17:29:25.583Z,10.79
2023-03-08T17:32:27.414Z,10.80
2023-03-08T17:35:29.713Z,10.80
2023-03-08T17:38:33.104Z,10.79
2023-03-08T17:41:35.876Z,10.73
2023-03-08T17:44:37.774Z,10.63
2023-03-08T17:47:40.454Z,10.50
2023-03-08T17:50:42.212Z,10.47
2023-03-08T17:53:45.577Z,10.28
2023-03-08T17:56:47.887Z,10.23
2023-03-08T17:59:50.593Z,10.20
2023-03-08T18:02:53.332Z,10.07
2023-03-08T18:05:55.129Z,10.07
2023-03-08T18:09:48.428Z,9.99
2023-03-08T18:12:50.446Z,9.93
2023-03-08T18:16:05.062Z,9.77
2023-03-08T18:19:10.804Z,9.81
2023-03-08T18:22:13.365Z,9.78
2023-03-08T18:25:19.822Z,9.67
2023-03-08T18:28:21.679Z,9.63
2023-03-08T18:31:26.370Z,9.66
2023-03-08T18:34:28.490Z,9.54
2023-03-08T18:37:40.820Z,9.49
2023-03-08T18:41:54.406Z,9.51
2023-03-08T18:45:52.083Z,9.55
2023-03-08T18:48:57.239Z,9.42
2023-03-08T18:52:23.416Z,9.35
2023-03-08T18:55:25.745Z,9.40
2023-03-08T18:58:28.418Z,9.33
2023-03-08T19:01:40.674Z,9.33
2023-03-08T19:04:43.157Z,9.38
2023-03-08T19:07:49.276Z,9.33
2023-03-08T19:10:51.504Z,9.29
2023-03-08T19:13:53.554Z,9.25
2023-03-08T19:17:21.202Z,9.26
2023-03-08T19:20:22.950Z,9.30
2023-03-08T19:23:34.621Z,9.26
2023-03-08T19:26:38.168Z,9.25
2023-03-08T19:29:40.117Z,9.19
2023-03-08T19:32:42.773Z,9.12
2023-03-08T19:35:44.739Z,9.16
2023-03-08T19:38:46.616Z,9.22
2023-03-08T19:41:49.992Z,9.18
2023-03-08T19:45:03.388Z,9.17
2023-03-08T19:52:27.182Z,9.06
2023-03-08T19:56:03.790Z,8.94
2023-03-08T19:59:25.916Z,8.96
2023-03-08T20:02:38.906Z,8.86
2023-03-08T20:06:01.018Z,8.90
2023-03-08T20:09:11.409Z,8.82
2023-03-08T20:12:13.492Z,8.73
2023-03-08T20:15:15.451Z,8.83
2023-03-08T20:18:17.534Z,8.74
2023-03-08T20:21:34.646Z,8.70
2023-03-08T20:24:36.698Z,8.75
2023-03-08T20:27:40.522Z,8.76
2023-03-08T20:30:42.559Z,8.72
2023-03-08T20:33:45.501Z,8.60
2023-03-08T20:36:47.560Z,8.63
2023-03-08T20:39:53.605Z,8.55
2023-03-08T20:42:58.655Z,8.64
2023-03-08T20:46:16.300Z,8.64
2023-03-08T20:49:22.947Z,8.57
2023-03-08T20:52:24.990Z,8.58
2023-03-08T20:55:26.877Z,8.55
2023-03-08T20:58:28.749Z,8.44
2023-03-08T21:01:32.928Z,8.58
2023-03-08T21:04:35.639Z,8.56
2023-03-08T21:07:37.401Z,8.59
2023-03-08T21:10:40.103Z,8.64
2023-03-08T21:13:42.164Z,8.66
2023-03-08T21:16:44.243Z,8.79
2023-03-08T21:19:46.263Z,8.70
2023-03-08T21:23:53.434Z,8.75
2023-03-08T21:26:48.663Z,8.72
2023-03-08T21:30:06.216Z,8.81
2023-03-08T21:33:14.448Z,8.76
2023-03-08T21:36:17.015Z,8.74
2023-03-08T21:39:19.912Z,8.73
2023-03-08T21:42:32.054Z,8.77
2023-03-08T21:46:14.811Z,8.67
2023-03-08T21:54:56.010Z,8.75
2023-03-08T22:01:58.874Z,8.81
2023-03-08T22:05:38.199Z,8.78
2023-03-08T22:08:58.927Z,8.79
2023-03-08T22:12:36.779Z,8.70
2023-03-08T22:15:49.253Z,8.74
2023-03-08T22:19:48.553Z,8.77
2023-03-08T22:27:10.942Z,8.72
2023-03-08T22:31:12.168Z,8.75
2023-03-08T22:34:05.268Z,8.75
2023-03-08T22:37:12.150Z,8.85
2023-03-08T22:40:19.112Z,8.86
2023-03-08T22:43:31.715Z,8.90
2023-03-08T22:49:57.207Z,8.94
2023-03-08T22:53:07.022Z,8.93
2023-03-08T22:56:36.317Z,8.96
2023-03-08T22:59:41.768Z,9.01
2023-03-08T23:02:50.896Z,9.11
2023-03-08T23:06:00.980Z,9.21
2023-03-08T23:09:14.392Z,9.23
2023-03-08T23:12:23.844Z,9.23
2023-03-08T23:15:46.408Z,9.28
2023-03-08T23:18:52.265Z,9.27
2023-03-08T23:21:57.169Z,9.35
2023-03-08T23:25:07.288Z,9.36
2023-03-08T23:28:11.265Z,9.50
2023-03-08T23:31:20.495Z,9.42
2023-03-08T23:34:29.986Z,9.45
2023-03-08T23:37:31.820Z,9.48
2023-03-08T23:40:33.954Z,9.53
2023-03-08T23:43:40.044Z,9.56
2023-03-08T23:46:46.297Z,9.55
2023-03-08T23:49:52.340Z,9.66
2023-03-08T23:52:58.327Z,9.61
2023-03-08T23:56:58.184Z,9.62
